Time;durP1;ratioP1;P1;durP2;ratioP2;P2;SDS_P1;SDS_P2;PMS_P1;PMS_P2;Temp;Humidity;BMP_temperature;BMP_pressure;BME280_temperature;BME280_humidity;BME280_pressure;Samples;Min_cycle;Max_cycle;Signal;HPM_P1;HPM_P2
2024/01/04 00:02:18;;;;;;;3.92;1.42;;;6.30;99.90;;;;;;6302589;22;20467;-81
2024/01/04 00:04:43;;;;;;;5.07;2.20;;;6.30;99.90;;;;;;6303248;22;20015;-81
2024/01/04 00:07:09;;;;;;;6.70;2.63;;;6.40;99.90;;;;;;6304932;22;20021;-80
2024/01/04 00:09:35;;;;;;;5.32;2.03;;;6.40;99.90;;;;;;6302056;22;20018;-80
2024/01/04 00:12:01;;;;;;;4.88;1.40;;;6.40;99.90;;;;;;6301391;22;20359;-81
2024/01/04 00:14:27;;;;;;;4.35;1.73;;;6.30;99.90;;;;;;6302841;22;20019;-81
2024/01/04 00:16:52;;;;;;;3.92;1.60;;;6.30;99.90;;;;;;6302091;22;20011;-80
2024/01/04 00:19:18;;;;;;;4.95;1.42;;;6.30;99.90;;;;;;6301951;22;20012;-81
2024/01/04 00:21:43;;;;;;;6.47;1.90;;;6.30;99.90;;;;;;6303553;22;20007;-81
2024/01/04 00:24:10;;;;;;;3.67;1.42;;;6.30;99.90;;;;;;6304327;22;20323;-81
2024/01/04 00:26:35;;;;;;;;;;;6.20;99.90;;;;;;6301062;22;20015;-81
2024/01/04 00:29:01;;;;;;;3.22;1.70;;;6.30;99.90;;;;;;6302223;22;20349;-82
2024/01/04 00:31:27;;;;;;;4.00;1.70;;;6.30;99.90;;;;;;6301820;22;20022;-81
2024/01/04 00:33:53;;;;;;;2.00;1.05;;;6.20;99.90;;;;;;6304839;22;20039;-82
2024/01/04 00:36:18;;;;;;;2.30;0.80;;;6.30;99.90;;;;;;6304832;22;20026;-82
2024/01/04 00:38:44;;;;;;;3.42;1.00;;;6.20;99.90;;;;;;6303040;22;20565;-81
2024/01/04 00:41:10;;;;;;;3.38;1.30;;;6.20;99.90;;;;;;6301797;22;20161;-81
2024/01/04 00:43:39;;;;;;;6.18;1.50;;;6.20;99.90;;;;;;6302835;22;20015;-80
2024/01/04 00:46:05;;;;;;;5.82;1.63;;;6.20;99.90;;;;;;6302346;22;20064;-80
2024/01/04 00:48:31;;;;;;;3.05;0.98;;;6.20;99.90;;;;;;6275917;22;20019;-81
2024/01/04 00:50:56;;;;;;;3.55;0.90;;;6.10;99.90;;;;;;6304367;22;20070;-81
2024/01/04 00:53:22;;;;;;;4.97;0.90;;;6.10;99.90;;;;;;6303960;22;20273;-82
2024/01/04 00:55:47;;;;;;;4.53;1.10;;;6.10;99.90;;;;;;6301290;22;20450;-82
2024/01/04 00:58:13;;;;;;;5.93;1.13;;;6.10;99.90;;;;;;6304254;22;20014;-82
2024/01/04 01:00:40;;;;;;;5.38;2.17;;;6.00;99.90;;;;;;6304841;22;20084;-80
2024/01/04 01:03:06;;;;;;;3.95;2.20;;;6.00;99.90;;;;;;6303408;22;20016;-81
2024/01/04 01:05:31;;;;;;;3.88;1.60;;;6.00;99.90;;;;;;6276991;22;20012;-80
2024/01/04 01:07:57;;;;;;;3.83;1.60;;;6.00;99.90;;;;;;6303864;22;20008;-82
2024/01/04 01:10:23;;;;;;;5.53;1.88;;;6.00;99.90;;;;;;6302028;22;20015;-80
2024/01/04 01:12:48;;;;;;;3.58;1.88;;;6.00;99.90;;;;;;6302755;22;20027;-81
2024/01/04 01:15:14;;;;;;;3.67;1.15;;;5.90;99.90;;;;;;6303310;22;20336;-81
2024/01/04 01:17:40;;;;;;;2.72;1.17;;;5.90;99.90;;;;;;6304343;22;20452;-81
2024/01/04 01:20:07;;;;;;;3.58;1.30;;;5.90;99.90;;;;;;6304454;22;20332;-80
2024/01/04 01:22:32;;;;;;;3.90;1.15;;;5.90;99.90;;;;;;6304386;22;20042;-80
2024/01/04 01:24:58;;;;;;;3.88;1.27;;;5.90;99.90;;;;;;6277279;22;20372;-80
2024/01/04 01:27:25;;;;;;;4.20;1.40;;;5.90;99.90;;;;;;6302217;22;20011;-80
2024/01/04 01:29:50;;;;;;;;;;;5.90;99.90;;;;;;6303578;22;20471;-80
2024/01/04 01:32:16;;;;;;;4.25;0.60;;;5.90;99.90;;;;;;6276759;22;19926;-81
2024/01/04 01:34:42;;;;;;;4.00;0.90;;;5.90;99.90;;;;;;6302153;22;20087;-81
2024/01/04 01:37:09;;;;;;;4.75;1.33;;;5.90;99.90;;;;;;6301584;22;20022;-81
2024/01/04 01:39:35;;;;;;;9.48;1.55;;;5.80;99.90;;;;;;6301910;22;20047;-82
2024/01/04 01:42:01;;;;;;;2.97;0.52;;;5.70;99.90;;;;;;6304039;22;20007;-81
2024/01/04 01:44:26;;;;;;;3.33;0.55;;;5.70;99.90;;;;;;6303909;22;20007;-81
2024/01/04 01:46:52;;;;;;;1.85;0.50;;;5.60;99.90;;;;;;6304410;22;20018;-81
2024/01/04 01:49:18;;;;;;;2.67;0.77;;;5.50;99.90;;;;;;6303401;22;20055;-81
2024/01/04 01:51:44;;;;;;;2.95;0.80;;;5.40;99.90;;;;;;6301895;22;20019;-82
2024/01/04 01:54:11;;;;;;;5.55;0.80;;;5.40;99.90;;;;;;6301590;22;20036;-81
2024/01/04 01:56:37;;;;;;;2.28;0.63;;;5.30;99.90;;;;;;6276000;22;20516;-81
2024/01/04 01:59:03;;;;;;;2.63;0.43;;;5.40;99.90;;;;;;6301850;22;20030;-81
2024/01/04 02:01:28;;;;;;;3.15;0.70;;;5.30;99.90;;;;;;6302279;22;20069;-81
2024/01/04 02:03:55;;;;;;;5.00;0.88;;;5.30;99.90;;;;;;6303257;22;20484;-82
2024/01/04 02:06:20;;;;;;;7.30;1.23;;;5.30;99.90;;;;;;6300444;22;20007;-82
2024/01/04 02:08:49;;;;;;;3.30;0.80;;;5.30;99.90;;;;;;6300920;22;20019;-81
2024/01/04 02:11:16;;;;;;;2.08;0.90;;;5.30;99.90;;;;;;6300307;22;20008;-81
2024/01/04 02:13:42;;;;;;;4.57;0.68;;;5.30;99.90;;;;;;6301703;22;20015;-81
2024/01/04 02:16:08;;;;;;;1.92;0.60;;;5.30;99.90;;;;;;6275852;22;20015;-82
2024/01/04 02:18:34;;;;;;;3.30;0.98;;;5.30;99.90;;;;;;6302108;22;20084;-81
2024/01/04 02:21:01;;;;;;;4.13;1.20;;;5.20;99.90;;;;;;6301198;22;20398;-81
2024/01/04 02:23:26;;;;;;;;;;;5.10;99.90;;;;;;6302435;22;20047;-82
2024/01/04 02:25:52;;;;;;;2.92;0.60;;;5.00;99.90;;;;;;6303411;22;19934;-81
2024/01/04 02:28:19;;;;;;;2.97;0.50;;;4.90;99.90;;;;;;6302404;22;20042;-81
2024/01/04 02:30:44;;;;;;;4.97;0.50;;;4.90;99.90;;;;;;6302247;22;20021;-81
2024/01/04 02:33:10;;;;;;;3.35;0.90;;;4.80;99.90;;;;;;6302338;22;20023;-81
2024/01/04 02:35:35;;;;;;;3.78;0.80;;;4.80;99.90;;;;;;6303212;22;20050;-81
2024/01/04 02:38:01;;;;;;;4.95;2.17;;;4.80;99.90;;;;;;6302176;22;20083;-82
2024/01/04 02:40:29;;;;;;;2.15;1.30;;;4.80;99.90;;;;;;6275778;22;20014;-81
2024/01/04 02:42:55;;;;;;;3.55;0.85;;;4.90;99.90;;;;;;6302702;22;20015;-81
2024/01/04 02:45:20;;;;;;;4.38;0.70;;;4.90;99.90;;;;;;6304235;22;20022;-81
2024/01/04 02:47:46;;;;;;;3.70;0.63;;;4.90;99.90;;;;;;6303892;22;20015;-81
2024/01/04 02:50:13;;;;;;;5.38;0.88;;;4.90;99.90;;;;;;6303220;22;20015;-80
2024/01/04 02:52:38;;;;;;;2.10;0.75;;;4.90;99.90;;;;;;6301143;22;20515;-80
2024/01/04 02:55:04;;;;;;;4.27;0.97;;;4.90;99.90;;;;;;6303809;22;20054;-81
2024/01/04 02:57:30;;;;;;;2.63;0.63;;;4.90;99.90;;;;;;6302189;22;20305;-81
2024/01/04 02:59:55;;;;;;;2.97;0.70;;;4.90;99.90;;;;;;6301334;22;20359;-81
2024/01/04 03:02:21;;;;;;;3.23;0.40;;;4.90;99.90;;;;;;6301717;22;20026;-81
2024/01/04 03:04:46;;;;;;;2.73;0.70;;;4.90;99.90;;;;;;6300061;22;20552;-80
2024/01/04 03:07:12;;;;;;;2.73;1.07;;;4.90;99.90;;;;;;6301615;22;20363;-80
2024/01/04 03:09:38;;;;;;;4.07;0.85;;;4.90;99.90;;;;;;6301815;22;20230;-81
2024/01/04 03:12:04;;;;;;;3.10;0.70;;;5.00;99.90;;;;;;6300079;22;20068;-81
2024/01/04 03:14:30;;;;;;;2.97;0.90;;;5.00;99.90;;;;;;6302283;22;20007;-81
2024/01/04 03:16:56;;;;;;;4.03;1.50;;;5.00;99.90;;;;;;6300929;22;20041;-81
2024/01/04 03:19:21;;;;;;;5.38;1.58;;;5.00;99.90;;;;;;6301243;22;20440;-81
2024/01/04 03:21:47;;;;;;;5.18;1.30;;;4.90;99.90;;;;;;6300345;22;20359;-81
2024/01/04 03:24:12;;;;;;;2.90;1.20;;;4.90;99.90;;;;;;6302251;22;20048;-81
2024/01/04 03:26:38;;;;;;;3.58;1.33;;;4.90;99.90;;;;;;6301185;22;20229;-81
2024/01/04 03:29:06;;;;;;;4.03;2.03;;;4.90;99.90;;;;;;6300544;22;20029;-81
2024/01/04 03:31:31;;;;;;;4.18;2.05;;;4.90;99.90;;;;;;6299637;22;20011;-81
2024/01/04 03:33:57;;;;;;;7.77;2.20;;;4.90;99.90;;;;;;6302235;22;20016;-81
2024/01/04 03:36:23;;;;;;;5.53;2.08;;;4.90;99.90;;;;;;6299947;22;20246;-81
2024/01/04 03:38:49;;;;;;;5.37;2.87;;;4.90;99.90;;;;;;6299815;22;20038;-81
2024/01/04 03:41:14;;;;;;;4.63;1.63;;;4.90;99.90;;;;;;6299642;22;20369;-81
2024/01/04 03:43:40;;;;;;;6.20;1.90;;;4.90;99.90;;;;;;6300389;22;20428;-81
2024/01/04 03:46:06;;;;;;;7.28;1.80;;;4.90;99.90;;;;;;6300328;22;20266;-80
2024/01/04 03:48:32;;;;;;;3.70;1.02;;;5.00;99.90;;;;;;6299449;22;20090;-80
2024/01/04 03:50:57;;;;;;;2.20;0.70;;;5.00;99.90;;;;;;6302318;22;20015;-80
2024/01/04 03:53:23;;;;;;;2.28;0.50;;;4.90;99.90;;;;;;6275687;22;20025;-81
2024/01/04 03:55:49;;;;;;;3.10;0.68;;;4.90;99.90;;;;;;6275614;22;20023;-80
2024/01/04 03:58:14;;;;;;;3.13;0.73;;;4.90;99.90;;;;;;6301186;22;20011;-80
2024/01/04 04:00:40;;;;;;;2.20;0.57;;;4.80;99.90;;;;;;6301403;22;20047;-81
2024/01/04 04:03:06;;;;;;;4.68;0.93;;;4.80;99.90;;;;;;6301181;22;20100;-80
2024/01/04 04:05:32;;;;;;;1.63;0.50;;;4.80;99.90;;;;;;6300595;22;20094;-80
2024/01/04 04:07:57;;;;;;;;;;;4.80;99.90;;;;;;6301823;22;20490;-81
2024/01/04 04:10:23;;;;;;;3.45;0.65;;;4.70;99.90;;;;;;6300790;22;19997;-81
2024/01/04 04:12:49;;;;;;;2.90;0.60;;;4.70;99.90;;;;;;6301329;22;20029;-81
2024/01/04 04:15:15;;;;;;;2.70;0.75;;;4.70;99.90;;;;;;6301201;22;20013;-80
2024/01/04 04:17:41;;;;;;;3.55;0.82;;;4.60;99.90;;;;;;6274982;22;20079;-80
2024/01/04 04:20:09;;;;;;;3.50;0.65;;;4.60;99.90;;;;;;6275582;22;20090;-81
2024/01/04 04:22:35;;;;;;;6.65;0.80;;;4.70;99.90;;;;;;6301154;22;20022;-81
2024/01/04 04:25:00;;;;;;;4.47;0.70;;;4.70;99.90;;;;;;6303373;22;20011;-81
2024/01/04 04:27:26;;;;;;;4.07;0.80;;;4.70;99.90;;;;;;6301956;22;20019;-82
2024/01/04 04:29:51;;;;;;;2.15;0.63;;;4.70;99.90;;;;;;6301044;22;20019;-81
2024/01/04 04:32:18;;;;;;;5.45;0.70;;;4.70;99.90;;;;;;6301683;22;20007;-81
2024/01/04 04:34:43;;;;;;;2.65;0.80;;;4.60;99.90;;;;;;6302405;22;20042;-81
2024/01/04 04:37:09;;;;;;;1.90;0.50;;;4.60;99.90;;;;;;6301040;22;20011;-81
2024/01/04 04:39:35;;;;;;;1.20;0.38;;;4.60;99.90;;;;;;6300877;22;20047;-81
2024/01/04 04:42:00;;;;;;;1.60;0.50;;;4.60;99.90;;;;;;6300543;22;20019;-81
2024/01/04 04:44:26;;;;;;;1.80;0.50;;;4.60;99.90;;;;;;6302738;22;20023;-81
2024/01/04 04:46:52;;;;;;;4.67;0.90;;;4.50;99.90;;;;;;6304528;22;20300;-80
2024/01/04 04:49:18;;;;;;;4.15;1.30;;;4.50;99.90;;;;;;6302925;22;20341;-80
2024/01/04 04:51:48;;;;;;;3.70;1.25;;;4.50;99.90;;;;;;6304572;22;20022;-81
2024/01/04 04:54:16;;;;;;;3.22;0.90;;;4.60;99.90;;;;;;6302698;22;20423;-80
2024/01/04 04:56:42;;;;;;;4.38;1.10;;;4.60;99.90;;;;;;6304382;22;20052;-81
2024/01/04 04:59:08;;;;;;;2.38;0.60;;;4.60;99.90;;;;;;6302483;22;20455;-81
2024/01/04 05:01:34;;;;;;;1.10;0.50;;;4.60;99.90;;;;;;6302584;22;20016;-81
2024/01/04 05:04:00;;;;;;;4.17;0.73;;;4.60;99.90;;;;;;6303475;22;20483;-81
2024/01/04 05:06:25;;;;;;;3.15;0.52;;;4.60;99.90;;;;;;6301314;22;20023;-81
2024/01/04 05:08:51;;;;;;;2.10;0.70;;;4.60;99.90;;;;;;6302389;22;20506;-81
2024/01/04 05:11:17;;;;;;;6.40;0.70;;;4.50;99.90;;;;;;6301163;22;20035;-81
2024/01/04 05:13:43;;;;;;;3.75;1.00;;;4.50;99.90;;;;;;6276959;22;20019;-81
2024/01/04 05:16:08;;;;;;;3.00;0.73;;;4.50;99.90;;;;;;6302053;22;20459;-81
2024/01/04 05:18:34;;;;;;;3.40;0.65;;;4.40;99.90;;;;;;6301526;22;20011;-81
2024/01/04 05:20:59;;;;;;;2.40;0.60;;;4.40;99.90;;;;;;6302616;22;20343;-81
2024/01/04 05:23:25;;;;;;;2.20;0.65;;;4.40;99.90;;;;;;6303926;22;20035;-81
2024/01/04 05:25:51;;;;;;;2.45;1.00;;;4.30;99.90;;;;;;6305748;22;20015;-81
2024/01/04 05:28:17;;;;;;;2.95;0.80;;;4.30;99.90;;;;;;6303559;22;20019;-82
2024/01/04 05:30:42;;;;;;;1.95;0.47;;;4.30;99.90;;;;;;6302974;22;20483;-81
2024/01/04 05:33:08;;;;;;;2.75;0.50;;;4.20;99.90;;;;;;6304791;22;20079;-81
2024/01/04 05:35:34;;;;;;;1.30;0.50;;;4.20;99.90;;;;;;6303052;22;20019;-81
2024/01/04 05:37:59;;;;;;;4.18;0.50;;;4.20;99.90;;;;;;6304255;22;20050;-81
2024/01/04 05:40:25;;;;;;;3.75;0.60;;;4.20;99.90;;;;;;6274185;22;20623;-80
2024/01/04 05:42:52;;;;;;;3.58;0.70;;;4.20;99.90;;;;;;6302935;22;20047;-80
2024/01/04 05:45:18;;;;;;;1.40;0.60;;;4.20;99.90;;;;;;6301119;22;20008;-81
2024/01/04 05:47:43;;;;;;;2.50;0.70;;;4.20;99.90;;;;;;6301815;22;20018;-80
2024/01/04 05:50:09;;;;;;;5.07;0.80;;;4.20;99.90;;;;;;6302537;22;20358;-79
2024/01/04 05:52:35;;;;;;;3.08;0.77;;;4.20;99.90;;;;;;6275040;22;20344;-79
2024/01/04 05:55:01;;;;;;;2.10;0.60;;;4.30;99.90;;;;;;6301031;22;20046;-79
2024/01/04 05:57:27;;;;;;;1.63;0.70;;;4.30;99.90;;;;;;6302953;22;20011;-80
2024/01/04 05:59:53;;;;;;;2.30;0.50;;;4.20;99.90;;;;;;6302819;22;20003;-81
2024/01/04 06:02:19;;;;;;;4.38;1.05;;;4.20;99.90;;;;;;6300532;22;20496;-81
2024/01/04 06:04:44;;;;;;;4.40;0.70;;;4.20;99.90;;;;;;6303034;22;20039;-81
2024/01/04 06:07:10;;;;;;;3.60;0.70;;;4.20;99.90;;;;;;6300468;22;20015;-78
2024/01/04 06:09:36;;;;;;;2.60;0.75;;;4.10;99.90;;;;;;6298506;22;20702;-78
2024/01/04 06:12:01;;;;;;;1.50;0.40;;;4.10;99.90;;;;;;6299895;22;20019;-77
2024/01/04 06:14:30;;;;;;;2.95;0.50;;;4.00;99.90;;;;;;6274770;22;20089;-80
2024/01/04 06:16:58;;;;;;;4.13;0.60;;;4.00;99.90;;;;;;6301114;22;20019;-80
2024/01/04 06:19:25;;;;;;;2.58;0.50;;;4.00;99.90;;;;;;6301109;22;20012;-80
2024/01/04 06:21:51;;;;;;;3.47;0.50;;;4.00;99.90;;;;;;6300248;22;20015;-80
2024/01/04 06:24:16;;;;;;;2.38;1.00;;;4.00;99.90;;;;;;6301428;22;20114;-81
2024/01/04 06:26:42;;;;;;;3.13;0.57;;;3.90;99.90;;;;;;6300467;22;20018;-81
2024/01/04 06:29:08;;;;;;;1.75;0.40;;;3.90;99.90;;;;;;6300541;22;20329;-81
2024/01/04 06:31:33;;;;;;;1.50;0.40;;;3.80;99.90;;;;;;6300814;22;20084;-80
2024/01/04 06:33:59;;;;;;;2.80;0.70;;;3.80;99.90;;;;;;6300706;22;20007;-81
2024/01/04 06:36:25;;;;;;;3.37;0.40;;;3.70;99.90;;;;;;6300546;22;20019;-81
2024/01/04 06:38:51;;;;;;;0.93;0.40;;;3.60;99.90;;;;;;6274711;22;20249;-81
2024/01/04 06:41:19;;;;;;;3.17;0.50;;;3.60;99.90;;;;;;6274306;22;20015;-81
2024/01/04 06:43:46;;;;;;;2.20;0.40;;;3.60;99.90;;;;;;6274360;22;20094;-80
2024/01/04 06:46:12;;;;;;;;;;;3.60;99.90;;;;;;6301631;22;20026;-80
2024/01/04 06:48:37;;;;;;;0.63;0.30;;;3.60;99.90;;;;;;6300747;22;19990;-81
2024/01/04 06:51:03;;;;;;;1.40;0.40;;;3.60;99.90;;;;;;6301438;22;20054;-81
2024/01/04 06:53:29;;;;;;;2.20;0.35;;;3.60;99.90;;;;;;6302191;22;20296;-81
2024/01/04 06:55:55;;;;;;;3.13;0.50;;;3.50;99.90;;;;;;6301161;22;20019;-82
2024/01/04 06:58:20;;;;;;;1.20;0.50;;;3.50;99.90;;;;;;6300146;22;20025;-82
2024/01/04 07:00:46;;;;;;;2.53;0.60;;;3.50;99.90;;;;;;6300352;22;20241;-80
2024/01/04 07:03:12;;;;;;;2.42;0.60;;;3.40;99.90;;;;;;6301465;22;20015;-82
2024/01/04 07:05:37;;;;;;;2.83;0.88;;;3.40;99.90;;;;;;6299654;22;20026;-82
2024/01/04 07:08:04;;;;;;;5.53;2.10;;;3.30;99.90;;;;;;6299869;22;20011;-82
2024/01/04 07:10:29;;;;;;;2.95;1.02;;;3.30;99.90;;;;;;6300880;22;20198;-81
2024/01/04 07:12:55;;;;;;;1.50;0.80;;;3.30;99.90;;;;;;6302118;22;20021;-81
2024/01/04 07:15:20;;;;;;;2.80;0.75;;;3.20;99.90;;;;;;6297201;22;20022;-80
2024/01/04 07:17:46;;;;;;;8.90;5.25;;;3.20;99.90;;;;;;6300928;22;20018;-81
2024/01/04 07:20:12;;;;;;;4.10;2.22;;;3.20;99.90;;;;;;6301509;22;20242;-81
2024/01/04 07:22:37;;;;;;;2.00;1.00;;;3.20;99.90;;;;;;6301128;22;20408;-82
2024/01/04 07:25:03;;;;;;;3.10;0.65;;;3.10;99.90;;;;;;6300646;22;20352;-80
2024/01/04 07:27:29;;;;;;;1.50;0.55;;;3.10;99.90;;;;;;6302441;22;20028;-81
2024/01/04 07:29:56;;;;;;;0.65;0.50;;;3.00;99.90;;;;;;6300409;22;20011;-81
2024/01/04 07:32:22;;;;;;;2.22;0.98;;;3.00;99.90;;;;;;6303537;22;20034;-81
2024/01/04 07:34:47;;;;;;;3.90;0.95;;;3.00;99.90;;;;;;6300914;22;20104;-81
2024/01/04 07:37:13;;;;;;;2.00;0.57;;;3.00;99.90;;;;;;6301640;22;20050;-80
2024/01/04 07:39:42;;;;;;;0.95;0.40;;;2.90;99.90;;;;;;6274239;22;20527;-80
2024/01/04 07:42:09;;;;;;;1.15;0.50;;;2.90;99.90;;;;;;6302001;22;20277;-80
2024/01/04 07:44:35;;;;;;;1.38;0.45;;;2.90;99.90;;;;;;6299862;22;20382;-80
2024/01/04 07:47:00;;;;;;;0.70;0.40;;;2.80;99.90;;;;;;6299533;22;20413;-80
2024/01/04 07:49:26;;;;;;;0.50;0.20;;;2.80;99.90;;;;;;6299383;22;20019;-80
2024/01/04 07:51:52;;;;;;;0.77;0.30;;;2.80;99.90;;;;;;6301481;22;20074;-80
2024/01/04 07:54:22;;;;;;;1.77;0.57;;;2.80;99.90;;;;;;6299712;22;20410;-80
2024/01/04 07:56:49;;;;;;;1.67;0.77;;;2.70;99.90;;;;;;6301774;22;20003;-81
2024/01/04 07:59:14;;;;;;;;;;;2.70;99.90;;;;;;6301191;22;20011;-80
2024/01/04 08:01:40;;;;;;;1.25;0.60;;;2.70;99.90;;;;;;6302561;22;19972;-80
2024/01/04 08:04:06;;;;;;;2.17;0.65;;;2.70;99.90;;;;;;6299868;22;20015;-80
2024/01/04 08:06:33;;;;;;;3.22;0.50;;;2.80;99.90;;;;;;6301598;22;20030;-80
2024/01/04 08:08:58;;;;;;;1.93;0.40;;;2.70;99.90;;;;;;6299339;22;20022;-81
2024/01/04 08:11:24;;;;;;;0.90;0.45;;;2.80;99.90;;;;;;6301526;22;20230;-81
2024/01/04 08:13:51;;;;;;;2.00;0.80;;;2.70;99.90;;;;;;6297964;22;20012;-80
2024/01/04 08:16:17;;;;;;;1.45;0.70;;;2.80;99.90;;;;;;6300112;22;20015;-81
2024/01/04 08:18:42;;;;;;;1.20;0.80;;;2.80;99.90;;;;;;6301613;22;20015;-81
2024/01/04 08:21:08;;;;;;;1.25;0.50;;;2.80;99.90;;;;;;6301902;22;20039;-81
2024/01/04 08:23:33;;;;;;;1.20;0.40;;;2.90;99.90;;;;;;6301069;22;20399;-81
2024/01/04 08:26:03;;;;;;;2.00;0.60;;;2.90;99.90;;;;;;6300307;22;20027;-81
2024/01/04 08:28:29;;;;;;;1.42;0.50;;;3.00;99.90;;;;;;6275971;22;20475;-81
2024/01/04 08:30:54;;;;;;;0.77;0.45;;;3.00;99.90;;;;;;6302019;22;20012;-81
2024/01/04 08:33:20;;;;;;;1.25;0.60;;;3.00;99.90;;;;;;6303735;22;20012;-81
2024/01/04 08:35:46;;;;;;;1.75;0.73;;;3.10;99.90;;;;;;6301970;22;20099;-81
2024/01/04 08:38:11;;;;;;;1.27;0.47;;;3.10;99.90;;;;;;6303525;22;20342;-80
2024/01/04 08:40:40;;;;;;;1.50;0.50;;;3.10;99.90;;;;;;6276223;22;20432;-81
2024/01/04 08:43:06;;;;;;;1.52;0.85;;;3.10;99.90;;;;;;6304182;22;20007;-81
2024/01/04 08:45:32;;;;;;;2.95;1.20;;;3.10;99.90;;;;;;6304807;22;20041;-81
2024/01/04 08:47:58;;;;;;;3.33;1.80;;;3.10;99.90;;;;;;6301709;22;20022;-80
2024/01/04 08:50:23;;;;;;;2.50;1.45;;;3.10;99.90;;;;;;6303762;22;20011;-81
2024/01/04 08:52:49;;;;;;;2.05;1.40;;;3.10;99.90;;;;;;6302506;22;20015;-81
2024/01/04 08:55:15;;;;;;;2.83;1.30;;;3.10;99.90;;;;;;6299376;22;20011;-81
2024/01/04 08:57:41;;;;;;;2.88;1.52;;;3.20;99.90;;;;;;6300989;22;20295;-80
2024/01/04 09:00:08;;;;;;;4.00;1.13;;;3.20;99.90;;;;;;6301660;22;20386;-81
2024/01/04 09:02:33;;;;;;;;;;;3.20;99.90;;;;;;6301387;22;20027;-81
2024/01/04 09:04:59;;;;;;;1.90;0.90;;;3.30;99.90;;;;;;6301252;22;20283;-80
2024/01/04 09:07:26;;;;;;;2.20;0.90;;;3.30;99.90;;;;;;6300802;22;20375;-81
2024/01/04 09:09:52;;;;;;;5.05;3.47;;;3.20;99.90;;;;;;6301717;22;20025;-81
2024/01/04 09:12:18;;;;;;;3.78;1.77;;;3.20;99.90;;;;;;6303447;22;20078;-81
2024/01/04 09:14:46;;;;;;;1.85;1.00;;;3.30;99.90;;;;;;6301652;22;20061;-81
2024/01/04 09:17:12;;;;;;;1.60;0.85;;;3.20;99.90;;;;;;6303883;22;20034;-81
2024/01/04 09:19:39;;;;;;;2.25;0.75;;;3.20;99.90;;;;;;6303000;22;20015;-80
2024/01/04 09:22:05;;;;;;;1.52;0.68;;;3.20;99.90;;;;;;6301377;22;20011;-80
2024/01/04 09:24:32;;;;;;;1.07;0.73;;;3.20;99.90;;;;;;6302226;22;20026;-81
2024/01/04 09:26:58;;;;;;;3.55;0.82;;;3.20;99.90;;;;;;6300958;22;20262;-81
2024/01/04 09:29:24;;;;;;;1.50;0.88;;;3.10;99.90;;;;;;6301510;22;20092;-80
2024/01/04 09:31:49;;;;;;;1.40;0.75;;;3.10;99.90;;;;;;6276876;22;20402;-81
2024/01/04 09:34:15;;;;;;;1.60;0.70;;;3.10;99.90;;;;;;6301754;22;20022;-80
2024/01/04 09:36:41;;;;;;;1.27;0.52;;;3.10;99.90;;;;;;6302073;22;20012;-81
2024/01/04 09:39:07;;;;;;;1.23;0.55;;;3.20;99.90;;;;;;6303469;22;20316;-81
2024/01/04 09:41:35;;;;;;;4.47;0.70;;;3.20;99.90;;;;;;6300255;22;20026;-81
2024/01/04 09:44:06;;;;;;;1.77;0.60;;;3.30;99.90;;;;;;6301452;22;20478;-80
2024/01/04 09:46:39;;;;;;;0.90;0.50;;;3.40;99.90;;;;;;6301372;22;20026;-80
2024/01/04 09:49:06;;;;;;;4.32;1.60;;;3.50;99.90;;;;;;6301214;22;20015;-81
2024/01/04 09:51:38;;;;;;;2.25;0.85;;;3.60;99.90;;;;;;6300672;22;20026;-81
2024/01/04 09:54:11;;;;;;;2.58;0.90;;;3.60;99.90;;;;;;6301258;22;20021;-81
2024/01/04 09:56:43;;;;;;;3.63;0.70;;;3.70;99.90;;;;;;6275147;22;20045;-80
2024/01/04 09:59:10;;;;;;;1.95;0.70;;;3.80;99.90;;;;;;6301569;22;20042;-81
2024/01/04 10:01:38;;;;;;;4.68;0.80;;;3.80;99.90;;;;;;6301855;22;20019;-81
2024/01/04 10:04:14;;;;;;;1.65;0.70;;;3.90;99.90;;;;;;6275901;22;20041;-81
2024/01/04 10:06:41;;;;;;;1.85;0.57;;;3.80;99.90;;;;;;6274370;22;20107;-80
2024/01/04 10:09:18;;;;;;;1.58;0.50;;;3.80;99.90;;;;;;6303506;22;20018;-80
2024/01/04 10:11:44;;;;;;;;;;;3.80;99.90;;;;;;6303311;22;20280;-81
2024/01/04 10:14:10;;;;;;;2.83;0.70;;;3.90;99.90;;;;;;6302810;22;20176;-81
2024/01/04 10:16:37;;;;;;;3.22;0.80;;;3.90;99.90;;;;;;6302343;22;20038;-81
2024/01/04 10:19:03;;;;;;;1.45;0.50;;;3.90;99.90;;;;;;6300644;22;20019;-79
2024/01/04 10:21:33;;;;;;;;;;;3.90;99.90;;;;;;6301533;22;20030;-81
2024/01/04 10:24:00;;;;;;;1.90;0.60;;;4.00;99.90;;;;;;6301008;22;20014;-81
2024/01/04 10:26:27;;;;;;;1.65;0.57;;;4.00;99.90;;;;;;6300574;22;20416;-81
2024/01/04 10:28:56;;;;;;;1.58;0.52;;;4.10;99.90;;;;;;6275747;22;20451;-80
2024/01/04 10:31:22;;;;;;;1.52;0.40;;;4.10;99.90;;;;;;6301245;22;20012;-81
2024/01/04 10:34:01;;;;;;;3.47;0.52;;;4.10;99.90;;;;;;6300898;22;20090;-81
2024/01/04 10:36:32;;;;;;;2.92;0.50;;;4.20;99.90;;;;;;6273984;22;20039;-81
2024/01/04 10:38:59;;;;;;;1.98;0.68;;;4.30;99.90;;;;;;6302152;22;20038;-81
2024/01/04 10:41:30;;;;;;;2.60;0.40;;;4.20;99.90;;;;;;6302629;22;20022;-81
2024/01/04 10:44:06;;;;;;;1.50;0.55;;;4.10;99.90;;;;;;6301083;22;20471;-81
2024/01/04 10:46:36;;;;;;;2.00;0.70;;;4.10;99.90;;;;;;6300766;22;20015;-81
2024/01/04 10:49:03;;;;;;;1.95;0.50;;;4.10;99.90;;;;;;6274271;22;20089;-81
2024/01/04 10:51:32;;;;;;;1.40;0.55;;;4.10;99.90;;;;;;6300673;22;20011;-81
2024/01/04 10:54:02;;;;;;;1.17;0.60;;;4.10;99.90;;;;;;6302198;22;20019;-80
2024/01/04 10:56:29;;;;;;;2.15;0.68;;;4.10;99.90;;;;;;6300179;22;20383;-81
2024/01/04 10:58:57;;;;;;;0.93;0.50;;;4.20;99.90;;;;;;6300850;22;20023;-81
2024/01/04 11:01:22;;;;;;;1.92;0.75;;;4.30;99.90;;;;;;6302660;22;20012;-81
2024/01/04 11:03:51;;;;;;;1.40;0.57;;;4.40;99.90;;;;;;6301764;22;20023;-81
2024/01/04 11:06:17;;;;;;;1.20;0.50;;;4.50;99.90;;;;;;6300628;22;20015;-81
2024/01/04 11:08:43;;;;;;;1.92;0.65;;;4.60;99.90;;;;;;6299915;22;20061;-82
2024/01/04 11:11:10;;;;;;;2.22;0.40;;;4.70;99.90;;;;;;6301456;22;20019;-81
2024/01/04 11:13:36;;;;;;;1.98;0.60;;;4.80;99.90;;;;;;6302332;22;20108;-81
2024/01/04 11:16:19;;;;;;;1.73;0.63;;;4.80;99.90;;;;;;6301274;22;20015;-82
2024/01/04 11:18:59;;;;;;;2.20;0.70;;;4.80;99.90;;;;;;6299982;22;20011;-81
2024/01/04 11:21:34;;;;;;;1.30;0.57;;;4.90;99.90;;;;;;6300521;22;20015;-82
2024/01/04 11:24:11;;;;;;;3.28;0.80;;;5.00;99.90;;;;;;6300789;22;20437;-82
2024/01/04 11:26:59;;;;;;;2.53;0.52;;;5.00;99.90;;;;;;6300021;22;20015;-81
2024/01/04 11:29:25;;;;;;;;;;;5.40;99.90;;;;;;6301438;22;20439;-81
2024/01/04 11:31:51;;;;;;;1.60;0.60;;;5.10;99.90;;;;;;6300011;22;19922;-81
2024/01/04 11:34:18;;;;;;;1.45;0.60;;;5.20;99.90;;;;;;6302275;22;20501;-81
2024/01/04 11:36:44;;;;;;;1.52;0.40;;;5.30;99.90;;;;;;6274449;22;20042;-82
2024/01/04 11:39:10;;;;;;;1.33;0.55;;;5.10;99.90;;;;;;6300400;22;20007;-81
2024/01/04 11:41:37;;;;;;;0.88;0.30;;;5.00;99.90;;;;;;6301904;22;20022;-81
2024/01/04 11:44:14;;;;;;;2.35;0.47;;;5.00;99.90;;;;;;6300377;22;20050;-81
2024/01/04 11:46:41;;;;;;;;;;;5.00;99.90;;;;;;6302485;22;20297;-81
2024/01/04 11:49:06;;;;;;;4.07;0.50;;;4.90;99.90;;;;;;6302327;22;19925;-81
2024/01/04 11:51:47;;;;;;;2.00;0.50;;;4.80;99.90;;;;;;6302181;22;20019;-81
2024/01/04 11:54:15;;;;;;;2.65;0.50;;;4.90;99.90;;;;;;6303996;22;20451;-81
2024/01/04 11:56:40;;;;;;;0.57;0.40;;;4.90;99.90;;;;;;6302409;22;20021;-81
2024/01/04 11:59:07;;;;;;;0.75;0.35;;;4.90;99.90;;;;;;6302457;22;20011;-81
2024/01/04 12:01:35;;;;;;;1.08;0.40;;;5.10;99.90;;;;;;6276148;22;20086;-81
2024/01/04 12:04:09;;;;;;;1.50;0.60;;;5.20;99.90;;;;;;6304466;22;20386;-81
2024/01/04 12:06:38;;;;;;;2.03;0.85;;;5.30;99.90;;;;;;6304330;22;20021;-81
2024/01/04 12:09:09;;;;;;;2.13;1.08;;;5.50;99.90;;;;;;6301708;22;20033;-80
2024/01/04 12:11:36;;;;;;;2.08;0.88;;;5.50;99.90;;;;;;6302087;22;20344;-81
2024/01/04 12:14:03;;;;;;;3.35;0.80;;;5.80;99.90;;;;;;6302041;22;20452;-80
2024/01/04 12:16:29;;;;;;;1.40;0.70;;;6.00;99.90;;;;;;6275959;22;20052;-80
2024/01/04 12:18:56;;;;;;;2.85;1.02;;;6.20;99.90;;;;;;6302831;22;20483;-80
2024/01/04 12:21:23;;;;;;;1.48;0.60;;;6.40;99.90;;;;;;6276682;22;20505;-80
2024/01/04 12:23:49;;;;;;;;;;;6.20;99.90;;;;;;6302670;22;20019;-80
2024/01/04 12:26:16;;;;;;;2.87;0.83;;;6.30;99.90;;;;;;6303703;22;19922;-81
2024/01/04 12:28:44;;;;;;;3.17;0.73;;;6.30;99.90;;;;;;6302389;22;20241;-81
2024/01/04 12:31:11;;;;;;;2.80;0.60;;;6.40;99.90;;;;;;6303507;22;20011;-81
2024/01/04 12:33:39;;;;;;;1.13;0.52;;;6.20;99.90;;;;;;6304451;22;20026;-82
2024/01/04 12:36:05;;;;;;;4.18;0.82;;;6.20;99.90;;;;;;6304169;22;20007;-81
2024/01/04 12:38:31;;;;;;;1.17;0.50;;;6.20;99.90;;;;;;6302389;22;20496;-81
2024/01/04 12:40:56;;;;;;;2.33;0.50;;;6.20;99.90;;;;;;6302358;22;20011;-82
2024/01/04 12:43:24;;;;;;;1.10;0.50;;;6.20;99.90;;;;;;6302825;22;20463;-79
2024/01/04 12:46:08;;;;;;;2.90;0.90;;;6.00;99.90;;;;;;6302142;22;20164;-81
2024/01/04 12:48:34;;;;;;;1.90;0.70;;;5.90;99.90;;;;;;6301909;22;20030;-81
2024/01/04 12:51:08;;;;;;;1.02;0.63;;;5.90;99.90;;;;;;6303638;22;20086;-80
2024/01/04 12:53:34;;;;;;;2.00;0.60;;;5.90;99.90;;;;;;6302070;22;20022;-80
2024/01/04 12:56:00;;;;;;;2.20;0.95;;;5.80;99.90;;;;;;6301758;22;20012;-80
2024/01/04 12:58:26;;;;;;;2.25;0.80;;;5.80;99.90;;;;;;6301606;22;20053;-80